Time;durP1;ratioP1;P1;durP2;ratioP2;P2;SDS_P1;SDS_P2;PMS_P1;PMS_P2;Temp;Humidity;BMP_temperature;BMP_pressure;BME280_temperature;BME280_humidity;BME280_pressure;Samples;Min_cycle;Max_cycle;Signal;HPM_P1;HPM_P2
2022/05/19 00:01:39;;;;;;;4.38;2.03;;;;;;;12.54;63.42;101710.06;5054394;28;20029;-79
2022/05/19 00:04:04;;;;;;;6.28;2.22;;;;;;;12.60;63.95;101724.94;5055162;28;20111;-80
2022/05/19 00:06:30;;;;;;;9.80;2.20;;;;;;;12.58;63.90;101732.28;5057049;28;20047;-80
2022/05/19 00:08:55;;;;;;;3.72;1.90;;;;;;;12.48;64.65;101731.22;5060055;28;20028;-81
2022/05/19 00:11:29;;;;;;;13.25;3.08;;;;;;;12.50;64.72;101729.28;5055427;28;20091;-80
2022/05/19 00:13:54;;;;;;;10.55;2.90;;;;;;;12.42;64.85;101726.25;5055362;28;20025;-80
2022/05/19 00:16:20;;;;;;;8.68;2.58;;;;;;;12.48;65.27;101729.38;5055107;28;20040;-81
2022/05/19 00:18:45;;;;;;;9.35;2.92;;;;;;;12.36;65.70;101724.00;5054822;28;20029;-80
2022/05/19 00:21:10;;;;;;;8.10;2.70;;;;;;;12.40;66.23;101734.47;5055453;28;20032;-81
2022/05/19 00:23:36;;;;;;;7.82;2.90;;;;;;;12.42;65.89;101737.06;5054802;28;20021;-81
2022/05/19 00:26:01;;;;;;;11.23;2.22;;;;;;;12.42;66.12;101731.66;5054971;28;20036;-80
2022/05/19 00:28:27;;;;;;;7.88;3.20;;;;;;;12.39;66.45;101737.28;5054802;28;20027;-80
2022/05/19 00:30:52;;;;;;;9.85;2.95;;;;;;;12.44;67.05;101735.13;5054480;28;20029;-80
2022/05/19 00:33:18;;;;;;;5.22;2.78;;;;;;;12.46;66.72;101727.78;5054733;28;20096;-81
2022/05/19 00:35:43;;;;;;;12.63;3.25;;;;;;;12.52;67.08;101724.63;5054952;28;20037;-80
2022/05/19 00:38:09;;;;;;;14.05;3.15;;;;;;;12.50;66.95;101729.28;5054932;28;20494;-80
2022/05/19 00:40:36;;;;;;;7.68;2.63;;;;;;;12.46;67.28;101731.34;5054821;28;20087;-81
2022/05/19 00:43:03;;;;;;;10.52;3.00;;;;;;;12.48;67.07;101720.41;5054650;28;20021;-80
2022/05/19 00:45:41;;;;;;;17.35;3.33;;;;;;;12.51;67.47;101731.00;5055095;28;20083;-81
2022/05/19 00:48:19;;;;;;;7.63;2.85;;;;;;;12.47;67.52;101730.38;5055091;28;20478;-81
2022/05/19 00:50:51;;;;;;;9.50;3.22;;;;;;;12.51;67.31;101726.47;5053120;28;20112;-80
2022/05/19 00:53:35;;;;;;;21.88;3.70;;;;;;;12.55;67.88;101729.81;5054399;28;20021;-80
2022/05/19 00:56:09;;;;;;;5.38;2.78;;;;;;;12.58;67.23;101726.91;5053633;28;20025;-80
2022/05/19 00:58:45;;;;;;;8.18;3.25;;;;;;;12.62;67.53;101720.31;5054627;28;20105;-82
2022/05/19 01:01:11;;;;;;;9.15;3.20;;;;;;;12.63;67.72;101724.72;5054201;28;20052;-81
2022/05/19 01:03:47;;;;;;;15.70;2.90;;;;;;;12.64;67.26;101729.16;5054312;28;20028;-80
2022/05/19 01:06:17;;;;;;;6.05;3.00;;;;;;;12.68;67.49;101727.09;5054074;28;20021;-81
2022/05/19 01:08:52;;;;;;;7.40;3.30;;;;;;;12.63;67.41;101713.91;5054444;28;20027;-81
2022/05/19 01:11:18;;;;;;;12.75;3.70;;;;;;;12.69;67.54;101729.66;5052613;28;20035;-80
2022/05/19 01:13:44;;;;;;;14.13;2.97;;;;;;;12.62;68.01;101727.53;5053933;28;20399;-81
2022/05/19 01:16:10;;;;;;;7.43;3.25;;;;;;;12.57;67.89;101731.44;5053989;28;20029;-82
2022/05/19 01:18:37;;;;;;;11.93;3.65;;;;;;;12.64;67.86;101739.94;5053716;28;20021;-81
2022/05/19 01:21:06;;;;;;;12.75;3.45;;;;;;;12.64;68.16;101741.78;5053922;28;20029;-81
2022/05/19 01:23:50;;;;;;;5.82;2.88;;;;;;;12.60;68.25;101741.13;5053947;28;20513;-80
2022/05/19 01:26:28;;;;;;;7.72;4.28;;;;;;;12.60;68.13;101729.50;5053971;28;20090;-80
2022/05/19 01:28:57;;;;;;;11.52;3.60;;;;;;;12.62;68.08;101732.94;5053866;28;20080;-80
2022/05/19 01:31:47;;;;;;;11.90;3.33;;;;;;;12.60;68.06;101749.22;5054224;28;20099;-79
2022/05/19 01:34:13;;;;;;;7.22;3.08;;;;;;;12.61;68.61;101734.78;5053936;28;20078;-80
2022/05/19 01:36:39;;;;;;;6.03;3.55;;;;;;;12.66;68.27;101732.59;5053133;28;20045;-80
2022/05/19 01:39:08;;;;;;;17.52;3.67;;;;;;;12.63;68.62;101730.09;5053981;28;20116;-80
2022/05/19 01:41:56;;;;;;;6.38;3.33;;;;;;;12.70;68.35;101730.53;5053391;28;20083;-80
2022/05/19 01:44:24;;;;;;;14.98;3.67;;;;;;;12.76;68.35;101730.09;5056559;28;20029;-80
2022/05/19 01:46:59;;;;;;;8.20;3.50;;;;;;;12.72;68.38;101724.03;5054133;28;20445;-80
2022/05/19 01:49:33;;;;;;;15.13;3.72;;;;;;;12.79;68.57;101733.44;5053610;28;20100;-80
2022/05/19 01:52:09;;;;;;;12.57;4.53;;;;;;;12.83;68.04;101732.25;5053212;28;20070;-80
2022/05/19 01:54:49;;;;;;;10.55;3.67;;;;;;;12.84;67.86;101733.94;5053367;28;20051;-80
2022/05/19 01:57:23;;;;;;;8.95;3.80;;;;;;;12.83;68.03;101725.97;5053170;28;20047;-80
2022/05/19 01:59:58;;;;;;;10.80;3.17;;;;;;;12.92;67.98;101730.69;5053315;28;20036;-80
2022/05/19 02:02:29;;;;;;;16.23;4.13;;;;;;;12.88;67.99;101730.06;5053176;28;20116;-80
2022/05/19 02:05:45;;;;;;;9.15;2.92;;;;;;;12.87;68.10;101722.91;5053213;28;20464;-80
2022/05/19 02:08:22;;;;;;;9.80;3.58;;;;;;;12.85;68.36;101718.63;5043290;28;20040;-80
2022/05/19 02:10:51;;;;;;;11.65;3.65;;;;;;;12.91;68.30;101735.22;5052990;28;20029;-79
2022/05/19 02:13:19;;;;;;;3.63;2.55;;;;;;;12.87;68.23;101735.59;5053553;28;20078;-80
2022/05/19 02:15:46;;;;;;;13.07;4.20;;;;;;;12.87;68.47;101732.88;5054102;28;20082;-78
2022/05/19 02:18:15;;;;;;;12.27;3.95;;;;;;;12.83;68.44;101718.75;5073740;28;20040;-79
2022/05/19 02:20:43;;;;;;;14.10;3.67;;;;;;;12.89;68.22;101729.09;5070850;28;20095;-80
2022/05/19 02:23:11;;;;;;;15.02;4.07;;;;;;;12.85;68.72;101730.28;5070288;28;20025;-79
2022/05/19 02:25:43;;;;;;;11.90;4.38;;;;;;;12.93;68.78;101732.44;5058071;28;20017;-80
2022/05/19 02:28:37;;;;;;;9.23;4.07;;;;;;;12.91;68.54;101740.63;5053423;28;20021;-80
2022/05/19 02:31:03;;;;;;;22.33;4.70;;;;;;;12.84;69.02;101727.72;5053534;28;20159;-80
2022/05/19 02:33:28;;;;;;;27.20;4.90;;;;;;;12.83;69.26;101740.34;5053346;28;20104;-80
2022/05/19 02:35:55;;;;;;;10.07;3.83;;;;;;;12.73;69.51;101733.88;5052400;28;20045;-80
2022/05/19 02:38:21;;;;;;;10.45;4.15;;;;;;;12.81;69.68;101741.44;5052579;28;20551;-80
2022/05/19 02:40:48;;;;;;;15.60;4.03;;;;;;;12.76;69.86;101736.34;5052445;28;20028;-82
2022/05/19 02:43:15;;;;;;;12.18;4.38;;;;;;;12.71;69.70;101743.94;5052263;28;20021;-79
2022/05/19 02:45:41;;;;;;;11.77;5.82;;;;;;;12.72;69.79;101740.25;5052403;28;20028;-79
2022/05/19 02:48:09;;;;;;;20.88;5.03;;;;;;;12.71;70.28;101746.63;5052424;28;20135;-80
2022/05/19 02:50:35;;;;;;;17.77;4.38;;;;;;;12.73;70.41;101752.78;5052288;28;20029;-79
2022/05/19 02:53:00;;;;;;;11.50;4.45;;;;;;;12.73;70.35;101738.41;5052618;28;20028;-81
2022/05/19 02:55:26;;;;;;;8.38;5.07;;;;;;;12.76;70.36;101748.97;5052515;28;20351;-81
2022/05/19 02:57:52;;;;;;;12.32;3.50;;;;;;;12.81;70.26;101753.06;5052668;28;20155;-80
2022/05/19 03:00:21;;;;;;;7.15;4.18;;;;;;;12.83;70.32;101758.38;5052611;28;20410;-80
2022/05/19 03:02:47;;;;;;;8.70;4.68;;;;;;;12.80;70.26;101759.47;5052554;28;20491;-81
2022/05/19 03:05:16;;;;;;;15.38;3.88;;;;;;;12.78;70.64;101755.16;5052167;28;20032;-81
2022/05/19 03:07:41;;;;;;;9.10;4.20;;;;;;;12.82;70.44;101760.19;5052096;28;20017;-81
2022/05/19 03:10:08;;;;;;;10.02;4.65;;;;;;;12.81;70.02;101761.16;5052366;28;20028;-81
2022/05/19 03:12:33;;;;;;;5.65;3.80;;;;;;;12.85;70.74;101762.69;5052405;28;20023;-79
2022/05/19 03:14:58;;;;;;;14.65;4.63;;;;;;;12.87;70.60;101759.88;5051464;28;20017;-78
2022/05/19 03:17:24;;;;;;;7.38;4.10;;;;;;;12.90;70.20;101756.97;5052170;28;20061;-78
2022/05/19 03:19:53;;;;;;;24.05;4.47;;;;;;;12.88;69.96;101762.47;5054979;28;20025;-79
2022/05/19 03:22:19;;;;;;;16.17;3.50;;;;;;;12.89;69.97;101769.59;5056022;28;20041;-78
2022/05/19 03:24:44;;;;;;;8.25;4.00;;;;;;;12.85;70.44;101745.59;5056348;28;20020;-78
2022/05/19 03:27:10;;;;;;;6.45;3.83;;;;;;;12.88;70.56;101759.75;5055977;28;20025;-78
2022/05/19 03:29:35;;;;;;;16.52;4.82;;;;;;;12.96;69.98;101765.47;5054578;28;20031;-78
2022/05/19 03:32:01;;;;;;;6.32;4.25;;;;;;;12.96;69.84;101759.22;5055421;28;20032;-78
2022/05/19 03:34:26;;;;;;;7.88;3.97;;;;;;;13.09;69.88;101765.44;5055805;28;20029;-78
2022/05/19 03:36:51;;;;;;;9.88;3.97;;;;;;;13.09;69.23;101760.91;5055252;28;20483;-78
2022/05/19 03:39:18;;;;;;;9.93;3.80;;;;;;;13.17;69.14;101770.28;5055375;28;20029;-78
2022/05/19 03:41:43;;;;;;;12.90;4.00;;;;;;;13.18;68.48;101767.47;5055458;28;20029;-78
2022/05/19 03:44:09;;;;;;;13.23;4.20;;;;;;;13.24;68.66;101774.28;5055165;28;20058;-78
2022/05/19 03:46:35;;;;;;;20.75;4.63;;;;;;;13.25;68.42;101771.44;5055274;28;20024;-77
2022/05/19 03:49:00;;;;;;;12.68;5.20;;;;;;;13.29;67.67;101772.09;5055288;28;20036;-78
2022/05/19 03:51:29;;;;;;;11.80;3.90;;;;;;;13.28;67.39;101764.94;5055253;28;20413;-78
2022/05/19 03:53:55;;;;;;;14.32;3.45;;;;;;;13.35;67.19;101774.34;5054976;28;20048;-78
2022/05/19 03:56:22;;;;;;;10.57;4.47;;;;;;;13.38;67.19;101771.41;5055043;28;20025;-78
2022/05/19 03:58:48;;;;;;;15.27;5.05;;;;;;;13.38;67.39;101780.38;5055399;28;20025;-78
2022/05/19 04:01:14;;;;;;;13.02;3.78;;;;;;;13.39;67.00;101779.38;5054766;28;20475;-78
2022/05/19 04:03:41;;;;;;;9.93;3.88;;;;;;;13.45;66.74;101780.78;5054900;28;20063;-78
2022/05/19 04:06:06;;;;;;;14.32;3.92;;;;;;;13.48;66.41;101788.66;5054775;28;20028;-79
2022/05/19 04:08:32;;;;;;;9.75;4.63;;;;;;;13.55;65.97;101789.91;5055026;28;20031;-79
2022/05/19 04:10:57;;;;;;;14.50;4.22;;;;;;;13.61;65.44;101784.03;5054675;28;20032;-79
2022/05/19 04:13:23;;;;;;;10.38;3.60;;;;;;;13.70;65.02;101783.34;5054517;28;20025;-78
2022/05/19 04:15:48;;;;;;;6.30;3.15;;;;;;;13.72;64.99;101784.09;5055008;28;20399;-78
2022/05/19 04:18:14;;;;;;;13.77;3.67;;;;;;;13.73;64.38;101777.69;5053807;28;20459;-78
2022/05/19 04:20:40;;;;;;;11.13;3.40;;;;;;;13.78;65.03;101789.03;5054106;28;20040;-80
2022/05/19 04:23:06;;;;;;;11.85;3.45;;;;;;;13.84;64.92;101775.03;5051550;28;20100;-79
2022/05/19 04:25:32;;;;;;;16.73;3.53;;;;;;;13.89;65.24;101797.19;5054402;28;20561;-80
2022/05/19 04:27:58;;;;;;;16.27;4.82;;;;;;;13.99;65.53;101790.09;5054355;28;20475;-79
2022/05/19 04:30:24;;;;;;;14.63;5.00;;;;;;;13.92;65.65;101782.56;5052592;28;20020;-80
2022/05/19 04:32:49;;;;;;;29.10;5.40;;;;;;;14.05;65.60;101778.78;5053875;28;20487;-78
2022/05/19 04:35:16;;;;;;;61.10;7.65;;;;;;;14.08;65.63;101778.56;5053874;28;20054;-80
2022/05/19 04:37:43;;;;;;;19.77;4.43;;;;;;;14.13;65.07;101786.31;5053251;28;20395;-78
2022/05/19 04:40:10;;;;;;;20.65;5.15;;;;;;;14.17;64.87;101787.78;5054449;28;20033;-77
2022/05/19 04:42:36;;;;;;;12.07;4.57;;;;;;;14.23;65.11;101792.72;5053894;28;20103;-78
2022/05/19 04:45:02;;;;;;;7.85;3.58;;;;;;;14.26;65.28;101797.03;5054510;28;20131;-78
2022/05/19 04:47:28;;;;;;;22.23;4.85;;;;;;;14.27;65.25;101786.09;5054217;28;20017;-80
2022/05/19 04:49:53;;;;;;;15.77;4.38;;;;;;;14.36;65.25;101798.94;5054247;28;20036;-78
2022/05/19 04:52:20;;;;;;;20.23;4.78;;;;;;;14.41;64.98;101794.03;5054421;28;20033;-76
2022/05/19 04:54:46;;;;;;;25.88;5.43;;;;;;;14.46;63.96;101796.38;5050603;28;20108;-77
2022/05/19 04:57:11;;;;;;;16.60;4.53;;;;;;;14.45;63.42;101794.66;5053808;28;20163;-78
2022/05/19 04:59:38;;;;;;;12.63;4.50;;;;;;;14.50;62.62;101789.72;5055093;28;20051;-77
2022/05/19 05:02:05;;;;;;;9.90;4.00;;;;;;;14.46;62.18;101780.13;5053353;28;20028;-78
2022/05/19 05:04:30;;;;;;;12.43;3.55;;;;;;;14.49;61.95;101790.72;5053460;28;20024;-79
2022/05/19 05:06:57;;;;;;;13.35;3.92;;;;;;;14.48;62.27;101778.16;5054011;28;20028;-82
2022/05/19 05:09:23;;;;;;;21.77;4.50;;;;;;;14.46;62.86;101780.13;5053727;28;20083;-83
2022/05/19 05:11:48;;;;;;;11.98;3.92;;;;;;;14.38;62.89;101786.16;5053600;28;20029;-81
2022/05/19 05:14:16;;;;;;;21.02;4.22;;;;;;;14.54;62.37;101793.91;5053476;28;20021;-78
2022/05/19 05:16:43;;;;;;;9.88;3.45;;;;;;;14.60;61.99;101801.56;5052364;28;20021;-78
2022/05/19 05:19:08;;;;;;;26.70;5.10;;;;;;;14.63;62.14;101798.59;5053013;28;20025;-76
2022/05/19 05:21:34;;;;;;;9.95;3.67;;;;;;;14.60;61.80;101801.56;5052998;28;20029;-80
2022/05/19 05:24:00;;;;;;;18.73;3.67;;;;;;;14.69;61.21;101806.22;5054671;28;20028;-78
2022/05/19 05:26:25;;;;;;;15.68;4.20;;;;;;;14.79;61.29;101811.78;5053170;28;20029;-78
2022/05/19 05:28:51;;;;;;;12.70;3.53;;;;;;;14.84;61.00;101805.00;5052816;28;20021;-78
2022/05/19 05:31:16;;;;;;;16.42;3.88;;;;;;;14.93;60.78;101815.09;5052849;28;20033;-77
2022/05/19 05:33:41;;;;;;;14.50;3.92;;;;;;;15.04;60.83;101812.41;5053056;28;20487;-79
2022/05/19 05:36:07;;;;;;;18.98;4.03;;;;;;;15.14;59.86;101812.47;5053460;28;20110;-80
2022/05/19 05:38:32;;;;;;;10.52;3.30;;;;;;;15.10;58.86;101817.31;5052567;28;20033;-77
2022/05/19 05:40:59;;;;;;;18.70;4.20;;;;;;;15.19;59.15;101823.84;5052581;28;20416;-78
2022/05/19 05:43:24;;;;;;;11.70;3.40;;;;;;;15.24;58.63;101822.47;5052553;28;20032;-77
2022/05/19 05:45:51;;;;;;;10.68;3.05;;;;;;;15.25;58.46;101818.78;5052907;28;20032;-77
2022/05/19 05:48:17;;;;;;;17.13;3.17;;;;;;;15.27;58.41;101814.06;5051114;28;20402;-77
2022/05/19 05:50:43;;;;;;;6.70;2.88;;;;;;;15.30;58.27;101817.50;5052863;28;20032;-77
2022/05/19 05:53:10;;;;;;;22.25;4.30;;;;;;;15.29;57.81;101811.22;5053209;28;20020;-77
2022/05/19 05:55:37;;;;;;;8.48;2.53;;;;;;;15.35;57.44;101818.00;5053033;28;20103;-79
2022/05/19 05:58:07;;;;;;;18.98;3.58;;;;;;;15.44;57.36;101814.53;5053231;28;20021;-78
2022/05/19 06:00:33;;;;;;;17.27;4.95;;;;;;;15.54;56.50;101810.97;5053015;28;20539;-78
2022/05/19 06:02:58;;;;;;;31.23;5.70;;;;;;;15.61;56.47;101812.19;5053843;28;20052;-78
2022/05/19 06:05:24;;;;;;;11.70;3.17;;;;;;;15.67;55.29;101822.50;5053386;28;20025;-78
2022/05/19 06:07:49;;;;;;;30.92;3.38;;;;;;;15.76;55.01;101820.88;5052917;28;20070;-78
2022/05/19 06:10:15;;;;;;;11.77;3.40;;;;;;;15.77;54.84;101819.88;5053637;28;20052;-78
2022/05/19 06:12:41;;;;;;;7.88;3.53;;;;;;;15.82;54.60;101819.47;5052859;28;20075;-78
2022/05/19 06:15:10;;;;;;;11.30;3.20;;;;;;;15.85;54.30;101820.09;5052602;28;20100;-76
2022/05/19 06:17:35;;;;;;;14.35;3.60;;;;;;;15.89;53.96;101818.84;5052766;28;20021;-76
2022/05/19 06:20:01;;;;;;;5.10;2.42;;;;;;;15.97;54.04;101824.47;5053535;28;20467;-76
2022/05/19 06:22:26;;;;;;;11.93;3.85;;;;;;;16.02;53.32;101822.25;5052743;28;20490;-79
2022/05/19 06:24:52;;;;;;;15.82;4.22;;;;;;;16.07;53.14;101825.44;5052399;28;20371;-76
2022/05/19 06:27:18;;;;;;;8.95;3.67;;;;;;;16.06;53.00;101818.25;5052223;28;20083;-78
2022/05/19 06:29:43;;;;;;;22.42;5.15;;;;;;;16.18;52.91;101827.19;5052753;28;20041;-78
2022/05/19 06:32:09;;;;;;;13.75;2.80;;;;;;;16.26;51.66;101831.00;5052481;28;20055;-78
2022/05/19 06:34:35;;;;;;;54.03;6.68;;;;;;;16.27;51.07;101816.41;5052076;28;20025;-79
2022/05/19 06:37:02;;;;;;;25.48;3.75;;;;;;;16.39;51.12;101829.94;5052918;28;20047;-79
2022/05/19 06:39:28;;;;;;;4.03;2.55;;;;;;;16.36;51.24;101825.63;5052470;28;20530;-78
2022/05/19 06:42:03;;;;;;;11.32;2.38;;;;;;;16.47;51.10;101830.13;5052236;28;20107;-78
2022/05/19 06:44:34;;;;;;;10.70;2.67;;;;;;;16.53;50.73;101833.19;5052630;28;20455;-78
2022/05/19 06:47:00;;;;;;;23.42;6.57;;;;;;;16.59;50.38;101838.09;5052692;28;20025;-78
2022/05/19 06:49:26;;;;;;;14.95;4.35;;;;;;;16.56;50.23;101832.94;5052333;28;20795;-78
2022/05/19 06:51:52;;;;;;;6.97;2.72;;;;;;;16.56;49.88;101827.50;5052318;28;20106;-78
2022/05/19 06:54:19;;;;;;;5.05;2.45;;;;;;;16.67;50.45;101824.69;5053900;28;20507;-78
2022/05/19 06:56:45;;;;;;;27.73;17.00;;;;;;;16.72;50.33;101824.31;5056316;28;20451;-79
2022/05/19 06:59:11;;;;;;;6.13;2.80;;;;;;;16.72;49.83;101835.19;5056490;28;20113;-77
2022/05/19 07:01:37;;;;;;;10.48;3.70;;;;;;;16.74;49.71;101830.47;5056508;28;20086;-78
2022/05/19 07:04:02;;;;;;;14.98;2.67;;;;;;;16.81;48.98;101826.22;5055405;28;20461;-77
2022/05/19 07:06:28;;;;;;;5.38;2.80;;;;;;;16.81;49.34;101832.50;5055286;28;20044;-77
2022/05/19 07:08:53;;;;;;;8.13;3.42;;;;;;;16.92;49.35;101823.38;5055676;28;20017;-77
2022/05/19 07:11:25;;;;;;;14.70;3.72;;;;;;;17.02;49.08;101824.31;5055987;28;20447;-77
2022/05/19 07:13:56;;;;;;;3.80;2.47;;;;;;;17.08;49.23;101828.31;5055814;28;20036;-77
2022/05/19 07:16:22;;;;;;;8.05;3.13;;;;;;;17.06;48.45;101831.19;5055861;28;20037;-77
2022/05/19 07:18:47;;;;;;;6.93;2.85;;;;;;;17.04;48.73;101826.88;5055646;28;20056;-77
2022/05/19 07:21:14;;;;;;;18.48;3.78;;;;;;;17.16;48.31;101828.47;5055460;28;20061;-77
2022/05/19 07:23:40;;;;;;;8.23;3.03;;;;;;;17.23;48.63;101830.53;5055955;28;20029;-77
2022/05/19 07:26:05;;;;;;;5.03;2.38;;;;;;;17.20;48.48;101833.53;5055314;28;20027;-77
2022/05/19 07:28:31;;;;;;;4.85;2.38;;;;;;;17.14;47.29;101833.22;5055682;28;20052;-77
2022/05/19 07:30:57;;;;;;;5.00;2.90;;;;;;;17.16;47.38;101832.06;5055354;28;20033;-77
2022/05/19 07:33:22;;;;;;;20.83;3.40;;;;;;;17.26;47.04;101829.38;5055594;28;20388;-78
2022/05/19 07:35:50;;;;;;;14.05;3.30;;;;;;;17.39;46.19;101839.03;5055120;28;20048;-78
2022/05/19 07:38:16;;;;;;;7.65;2.50;;;;;;;17.38;46.31;101820.97;5055532;28;20051;-78
2022/05/19 07:40:43;;;;;;;5.43;2.45;;;;;;;17.51;46.30;101831.59;5055465;28;20033;-79
2022/05/19 07:45:52;;;;;;;9.65;2.60;;;;;;;17.72;46.19;101845.97;5056271;28;20113;-79
2022/05/19 07:48:18;;;;;;;15.95;2.92;;;;;;;17.72;46.11;101840.53;5055884;28;20108;-76
2022/05/19 07:50:43;;;;;;;14.30;3.03;;;;;;;17.67;46.48;101831.09;5055251;28;20402;-76
2022/05/19 07:53:09;;;;;;;11.50;2.83;;;;;;;17.72;46.47;101829.66;5055511;28;20086;-78
2022/05/19 07:55:36;;;;;;;32.30;16.20;;;;;;;17.81;47.29;101833.38;5055373;28;20406;-79
2022/05/19 07:58:02;;;;;;;20.38;4.63;;;;;;;17.88;47.03;101829.97;5052944;28;20036;-80
2022/05/19 08:00:27;;;;;;;10.25;3.03;;;;;;;18.05;46.91;101844.72;5055000;28;20029;-78
2022/05/19 08:02:52;;;;;;;15.93;5.15;;;;;;;18.13;45.45;101830.38;5054015;28;20085;-77
2022/05/19 08:05:18;;;;;;;11.88;2.83;;;;;;;18.12;45.07;101837.69;5055058;28;20084;-77
2022/05/19 08:07:43;;;;;;;10.13;3.13;;;;;;;18.05;45.49;101825.66;5055131;28;20021;-77
2022/05/19 08:10:23;;;;;;;6.20;2.67;;;;;;;18.12;46.28;101837.69;5055963;28;20029;-78
2022/05/19 08:15:35;;;;;;;10.48;2.38;;;;;;;18.23;45.13;101834.81;5057693;28;20063;-79
2022/05/19 08:18:03;;;;;;;9.20;2.97;;;;;;;18.30;45.20;101830.50;5055511;28;20100;-76
2022/05/19 08:20:29;;;;;;;8.13;2.92;;;;;;;18.40;45.66;101831.38;5054518;28;20032;-77
2022/05/19 08:22:56;;;;;;;10.07;2.70;;;;;;;18.47;45.61;101826.16;5054567;28;20021;-78
2022/05/19 08:25:26;;;;;;;15.63;2.58;;;;;;;18.57;45.56;101837.94;5054591;28;20025;-78
2022/05/19 08:27:52;;;;;;;11.20;3.33;;;;;;;18.60;44.76;101831.31;5054702;28;20032;-78
2022/05/19 08:30:17;;;;;;;8.13;2.95;;;;;;;18.65;44.31;101834.50;5060337;28;20032;-76
2022/05/19 08:32:43;;;;;;;24.90;4.43;;;;;;;18.69;44.53;101838.63;5066082;28;20052;-78
2022/05/19 08:35:09;;;;;;;11.88;3.65;;;;;;;18.82;44.20;101844.63;5062446;28;20025;-76
2022/05/19 08:37:34;;;;;;;32.63;3.60;;;;;;;18.88;43.51;101841.28;5058834;28;20033;-76
2022/05/19 08:40:00;;;;;;;7.82;3.05;;;;;;;18.87;44.20;101823.19;5053844;28;20435;-76
2022/05/19 08:42:29;;;;;;;15.38;3.22;;;;;;;18.87;43.39;101823.19;5054008;28;20081;-76
2022/05/19 08:44:58;;;;;;;10.57;2.88;;;;;;;19.08;44.13;101818.38;5053914;28;20060;-76
2022/05/19 08:47:27;;;;;;;9.20;2.53;;;;;;;19.28;43.21;101817.28;5054294;28;20028;-76
2022/05/19 08:50:01;;;;;;;10.70;3.20;;;;;;;19.32;42.82;101826.88;5053925;28;20036;-78
2022/05/19 08:52:39;;;;;;;19.27;2.25;;;;;;;19.43;41.80;101829.44;5053941;28;20112;-77
2022/05/19 08:55:05;;;;;;;16.05;4.13;;;;;;;19.50;41.42;101808.72;5053416;28;20111;-77
2022/05/19 08:57:38;;;;;;;9.55;2.40;;;;;;;19.67;42.13;101809.72;5053156;28;20108;-78
2022/05/19 09:00:07;;;;;;;19.40;3.17;;;;;;;19.79;41.86;101811.22;5053305;28;20033;-76
2022/05/19 09:02:54;;;;;;;10.02;2.50;;;;;;;19.88;41.01;101810.28;5053337;28;20444;-76
2022/05/19 09:05:57;;;;;;;11.05;2.90;;;;;;;19.89;41.89;101811.13;5052837;28;20060;-76
2022/05/19 09:08:28;;;;;;;15.25;3.35;;;;;;;19.92;41.04;101817.16;5053535;28;20032;-76
2022/05/19 09:11:02;;;;;;;10.10;2.88;;;;;;;19.92;40.99;101816.28;5053015;28;20055;-78
2022/05/19 09:13:41;;;;;;;8.55;2.30;;;;;;;19.91;40.36;101817.28;5053589;28;20028;-78
2022/05/19 09:16:17;;;;;;;13.02;2.33;;;;;;;19.92;40.40;101800.78;5051042;28;20064;-77
2022/05/19 09:18:52;;;;;;;12.90;3.45;;;;;;;20.08;41.46;101819.19;5052535;28;20120;-76
2022/05/19 09:21:18;;;;;;;5.22;2.70;;;;;;;20.08;39.82;101800.91;5052500;28;20025;-78
2022/05/19 09:23:43;;;;;;;4.25;2.40;;;;;;;20.17;39.77;101806.44;5052756;28;20028;-78
2022/05/19 09:26:21;;;;;;;7.20;2.53;;;;;;;20.23;40.45;101814.88;5052705;28;20050;-76
2022/05/19 09:28:53;;;;;;;13.02;3.22;;;;;;;20.37;41.13;101811.59;5052824;28;20029;-78
2022/05/19 09:31:33;;;;;;;8.98;3.13;;;;;;;20.45;40.70;101811.66;5052842;28;20414;-77
2022/05/19 09:33:59;;;;;;;20.20;3.65;;;;;;;20.54;39.87;101805.22;5053116;28;20130;-77
2022/05/19 09:36:25;;;;;;;13.60;3.58;;;;;;;20.55;40.01;101811.53;5052096;28;20484;-78
2022/05/19 09:39:00;;;;;;;9.75;2.67;;;;;;;20.58;40.07;101790.19;5052432;28;20368;-77
2022/05/19 09:41:28;;;;;;;4.10;2.17;;;;;;;20.75;40.13;101803.97;5053394;28;20096;-78
2022/05/19 09:43:56;;;;;;;12.48;3.00;;;;;;;20.72;39.48;101802.44;5053521;28;20032;-77
2022/05/19 09:46:22;;;;;;;4.00;2.00;;;;;;;20.75;39.93;101798.50;5052741;28;20040;-78
2022/05/19 09:49:03;;;;;;;8.18;2.70;;;;;;;20.85;39.57;101800.13;5053044;28;20028;-78
2022/05/19 09:51:40;;;;;;;13.90;3.75;;;;;;;20.81;40.53;101804.19;5054214;28;20476;-77
2022/05/19 09:54:05;;;;;;;20.02;2.92;;;;;;;20.75;39.65;101793.91;5054533;28;20461;-77
2022/05/19 09:56:49;;;;;;;9.15;2.55;;;;;;;20.83;39.71;101787.59;5053273;28;20037;-78
2022/05/19 09:59:21;;;;;;;10.88;3.05;;;;;;;20.94;40.13;101799.13;5052767;28;20024;-77
2022/05/19 10:01:49;;;;;;;15.55;2.80;;;;;;;21.05;39.62;101779.69;5052483;28;20032;-77
2022/05/19 10:04:25;;;;;;;10.75;2.13;;;;;;;21.19;37.78;101786.47;5052398;28;20112;-78
2022/05/19 10:06:57;;;;;;;14.23;3.20;;;;;;;21.35;39.06;101782.88;5052093;28;20020;-77
2022/05/19 10:09:31;;;;;;;15.77;2.80;;;;;;;21.42;39.07;101773.84;5052336;28;20503;-76
2022/05/19 10:12:09;;;;;;;8.00;2.88;;;;;;;21.47;38.87;101779.66;5050660;28;20332;-76
2022/05/19 10:14:35;;;;;;;11.32;2.35;;;;;;;21.47;38.77;101782.41;5052069;28;20108;-76
2022/05/19 10:17:21;;;;;;;13.52;2.50;;;;;;;21.49;39.26;101783.13;5051987;28;20100;-78
2022/05/19 10:20:22;;;;;;;11.23;2.72;;;;;;;21.35;38.43;101767.31;5052380;28;20140;-78
2022/05/19 10:23:08;;;;;;;12.75;1.88;;;;;;;21.38;37.72;101775.19;5051770;28;20025;-78
2022/05/19 10:25:42;;;;;;;3.55;2.30;;;;;;;21.43;38.47;101778.31;5051992;28;20506;-78
2022/05/19 10:31:13;;;;;;;5.30;2.45;;;;;;;21.70;38.26;101774.41;5056405;28;20716;-77
2022/05/19 10:33:54;;;;;;;7.55;2.10;;;;;;;21.84;37.62;101789.31;5056782;28;20473;-77
2022/05/19 10:36:56;;;;;;;6.03;2.40;;;;;;;21.95;37.24;101772.59;5055928;28;20435;-77
2022/05/19 10:39:24;;;;;;;11.77;2.88;;;;;;;21.97;36.44;101768.66;5056068;28;20067;-76
2022/05/19 10:42:09;;;;;;;7.60;2.75;;;;;;;22.11;37.12;101767.09;5056264;28;20043;-77
2022/05/19 10:44:47;;;;;;;13.43;2.25;;;;;;;22.13;37.31;101771.41;5055875;28;20352;-77
2022/05/19 10:47:18;;;;;;;17.50;3.08;;;;;;;22.12;37.03;101768.81;5056318;28;20025;-77
2022/05/19 10:49:46;;;;;;;11.77;2.38;;;;;;;22.23;35.63;101765.75;5056169;28;20075;-77
2022/05/19 10:52:23;;;;;;;16.38;2.30;;;;;;;22.37;35.75;101767.75;5055876;28;20494;-77
2022/05/19 10:55:13;;;;;;;6.05;2.53;;;;;;;22.47;36.45;101767.59;5056525;28;20059;-77
2022/05/19 10:58:17;;;;;;;14.55;1.92;;;;;;;22.37;35.67;101761.41;5056091;28;20118;-77
2022/05/19 11:01:48;;;;;;;7.40;1.88;;;;;;;22.34;35.36;101757.16;5056347;28;20029;-77
2022/05/19 11:04:20;;;;;;;12.10;1.90;;;;;;;22.41;36.42;101755.44;4951586;28;20126;-77
2022/05/19 11:07:04;;;;;;;4.60;2.17;;;;;;;22.56;36.10;101755.56;5042990;28;20041;-78
2022/05/19 11:09:32;;;;;;;11.60;2.53;;;;;;;22.59;36.43;101758.81;5054727;28;20144;-77
2022/05/19 11:12:25;;;;;;;13.05;2.65;;;;;;;22.57;36.00;101758.13;5055889;28;20025;-76
2022/05/19 11:15:12;;;;;;;;;;;;;;;22.67;35.05;101742.34;5056308;28;20434;-77
2022/05/19 11:18:12;;;;;;;21.27;3.20;;;;;;;22.72;35.20;101741.81;5055600;28;19978;-77
2022/05/19 11:21:03;;;;;;;7.05;3.10;;;;;;;22.82;35.01;101738.88;5055762;28;20025;-77
2022/05/19 11:23:43;;;;;;;11.02;2.40;;;;;;;22.73;35.99;101741.66;5055623;28;20056;-77
2022/05/19 11:26:25;;;;;;;9.05;2.33;;;;;;;22.77;35.09;101732.03;5054136;28;20511;-77
2022/05/19 11:29:20;;;;;;;9.93;2.78;;;;;;;22.78;35.27;101743.88;5056671;28;20028;-78
2022/05/19 11:32:12;;;;;;;3.05;2.08;;;;;;;22.73;33.66;101730.69;5051557;28;20057;-77
2022/05/19 11:34:59;;;;;;;7.70;2.33;;;;;;;22.90;34.53;101725.13;5052985;28;20058;-78
2022/05/19 11:37:34;;;;;;;11.65;2.50;;;;;;;23.01;34.63;101721.97;5055503;28;20132;-78
2022/05/19 11:40:12;;;;;;;5.40;2.45;;;;;;;23.01;34.31;101720.09;5054952;28;20037;-78
2022/05/19 11:43:07;;;;;;;6.15;2.33;;;;;;;23.01;34.52;101728.34;5055181;28;20052;-78